sensor_id;sensor_type;location;lat;lon;timestamp;pressure;altitude;pressure_sealevel;temperature;humidity
3096;BME280;1558;42.700;23.360;2023-03-26T00:01:14;94825.00;;;10.94;100.00
3096;BME280;1558;42.700;23.360;2023-03-26T00:03:51;94801.22;;;10.84;100.00
3096;BME280;1558;42.700;23.360;2023-03-26T00:06:27;94811.34;;;10.87;100.00
3096;BME280;1558;42.700;23.360;2023-03-26T00:09:12;94818.44;;;10.79;100.00
3096;BME280;1558;42.700;23.360;2023-03-26T00:11:56;94816.59;;;10.68;100.00
3096;BME280;1558;42.700;23.360;2023-03-26T00:14:38;94817.50;;;10.72;100.00
3096;BME280;1558;42.700;23.360;2023-03-26T00:17:06;94819.72;;;10.70;100.00
3096;BME280;1558;42.700;23.360;2023-03-26T00:19:35;94807.81;;;10.71;100.00
3096;BME280;1558;42.700;23.360;2023-03-26T00:22:03;94811.81;;;10.77;100.00
3096;BME280;1558;42.700;23.360;2023-03-26T00:24:32;94805.31;;;10.78;100.00
3096;BME280;1558;42.700;23.360;2023-03-26T00:27:04;94793.22;;;10.72;100.00
3096;BME280;1558;42.700;23.360;2023-03-26T00:29:34;94793.13;;;10.84;100.00
3096;BME280;1558;42.700;23.360;2023-03-26T00:32:03;94800.78;;;10.82;100.00
3096;BME280;1558;42.700;23.360;2023-03-26T00:34:34;94799.72;;;10.71;100.00
3096;BME280;1558;42.700;23.360;2023-03-26T00:37:04;94792.00;;;10.69;100.00
3096;BME280;1558;42.700;23.360;2023-03-26T00:39:36;94783.59;;;10.59;100.00
3096;BME280;1558;42.700;23.360;2023-03-26T00:42:06;94802.13;;;10.60;100.00
3096;BME280;1558;42.700;23.360;2023-03-26T00:44:34;94803.03;;;10.64;100.00
3096;BME280;1558;42.700;23.360;2023-03-26T00:47:02;94789.16;;;10.50;100.00
3096;BME280;1558;42.700;23.360;2023-03-26T00:49:30;94805.59;;;10.61;100.00
3096;BME280;1558;42.700;23.360;2023-03-26T00:51:58;94806.28;;;10.58;100.00
3096;BME280;1558;42.700;23.360;2023-03-26T00:54:28;94810.13;;;10.57;100.00
3096;BME280;1558;42.700;23.360;2023-03-26T00:56:56;94771.78;;;10.36;100.00
3096;BME280;1558;42.700;23.360;2023-03-26T00:59:26;94802.72;;;10.54;100.00
3096;BME280;1558;42.700;23.360;2023-03-26T01:01:56;94803.84;;;10.53;100.00
3096;BME280;1558;42.700;23.360;2023-03-26T01:04:27;94800.25;;;10.49;100.00
3096;BME280;1558;42.700;23.360;2023-03-26T01:07:00;94802.94;;;10.49;100.00
3096;BME280;1558;42.700;23.360;2023-03-26T01:09:33;94792.75;;;10.42;100.00
3096;BME280;1558;42.700;23.360;2023-03-26T01:12:04;94804.53;;;10.50;100.00
3096;BME280;1558;42.700;23.360;2023-03-26T01:14:36;94811.03;;;10.49;100.00
3096;BME280;1558;42.700;23.360;2023-03-26T01:17:07;94809.13;;;10.49;100.00
3096;BME280;1558;42.700;23.360;2023-03-26T01:19:44;94809.94;;;10.50;100.00
3096;BME280;1558;42.700;23.360;2023-03-26T01:22:16;94812.84;;;10.45;100.00
3096;BME280;1558;42.700;23.360;2023-03-26T01:24:49;94797.38;;;10.30;100.00
3096;BME280;1558;42.700;23.360;2023-03-26T01:27:30;94631.44;;;9.21;100.00
3096;BME280;1558;42.700;23.360;2023-03-26T01:30:08;94816.66;;;10.44;100.00
3096;BME280;1558;42.700;23.360;2023-03-26T01:32:50;94769.34;;;10.06;100.00
3096;BME280;1558;42.700;23.360;2023-03-26T01:35:39;94776.41;;;10.11;100.00
3096;BME280;1558;42.700;23.360;2023-03-26T01:38:22;94822.66;;;10.37;100.00
3096;BME280;1558;42.700;23.360;2023-03-26T01:41:01;94829.22;;;10.24;100.00
3096;BME280;1558;42.700;23.360;2023-03-26T01:43:38;94822.91;;;10.20;100.00
3096;BME280;1558;42.700;23.360;2023-03-26T01:46:12;94821.34;;;10.19;100.00
3096;BME280;1558;42.700;23.360;2023-03-26T01:48:44;94812.47;;;10.06;100.00
3096;BME280;1558;42.700;23.360;2023-03-26T01:51:26;94783.22;;;9.81;100.00
3096;BME280;1558;42.700;23.360;2023-03-26T01:54:03;94837.19;;;10.20;100.00
3096;BME280;1558;42.700;23.360;2023-03-26T01:56:49;94838.06;;;10.25;100.00
3096;BME280;1558;42.700;23.360;2023-03-26T01:59:35;94832.22;;;10.23;100.00
3096;BME280;1558;42.700;23.360;2023-03-26T02:02:12;94661.81;;;9.10;100.00
3096;BME280;1558;42.700;23.360;2023-03-26T02:04:50;94831.34;;;10.18;100.00
3096;BME280;1558;42.700;23.360;2023-03-26T02:07:24;94830.78;;;10.13;100.00
3096;BME280;1558;42.700;23.360;2023-03-26T02:09:58;94823.25;;;10.06;100.00
3096;BME280;1558;42.700;23.360;2023-03-26T02:12:29;94832.91;;;10.07;100.00
3096;BME280;1558;42.700;23.360;2023-03-26T02:14:58;94832.47;;;10.05;100.00
3096;BME280;1558;42.700;23.360;2023-03-26T02:17:28;94827.31;;;10.00;100.00
3096;BME280;1558;42.700;23.360;2023-03-26T02:19:58;94825.97;;;9.94;100.00
3096;BME280;1558;42.700;23.360;2023-03-26T02:22:31;94790.75;;;9.63;100.00
3096;BME280;1558;42.700;23.360;2023-03-26T02:25:07;94833.03;;;9.87;100.00
3096;BME280;1558;42.700;23.360;2023-03-26T02:27:38;94821.72;;;9.81;100.00
3096;BME280;1558;42.700;23.360;2023-03-26T02:30:11;94810.50;;;9.79;100.00
3096;BME280;1558;42.700;23.360;2023-03-26T02:32:40;94821.03;;;9.84;100.00
3096;BME280;1558;42.700;23.360;2023-03-26T02:35:10;94824.84;;;9.83;100.00
3096;BME280;1558;42.700;23.360;2023-03-26T02:37:38;94828.00;;;9.85;100.00
3096;BME280;1558;42.700;23.360;2023-03-26T02:40:08;94828.78;;;9.86;100.00
3096;BME280;1558;42.700;23.360;2023-03-26T02:42:38;94838.75;;;9.85;100.00
3096;BME280;1558;42.700;23.360;2023-03-26T02:45:07;94823.41;;;9.74;100.00
3096;BME280;1558;42.700;23.360;2023-03-26T02:47:35;94835.41;;;9.76;100.00
3096;BME280;1558;42.700;23.360;2023-03-26T02:50:04;94844.59;;;9.75;100.00
3096;BME280;1558;42.700;23.360;2023-03-26T02:52:34;94839.09;;;9.72;100.00
3096;BME280;1558;42.700;23.360;2023-03-26T02:55:06;94849.97;;;9.75;100.00
3096;BME280;1558;42.700;23.360;2023-03-26T02:57:34;94853.81;;;9.74;100.00
3096;BME280;1558;42.700;23.360;2023-03-26T03:00:06;94862.66;;;9.75;100.00
3096;BME280;1558;42.700;23.360;2023-03-26T03:02:40;94859.06;;;9.71;100.00
3096;BME280;1558;42.700;23.360;2023-03-26T03:05:16;94857.72;;;9.65;100.00
3096;BME280;1558;42.700;23.360;2023-03-26T03:08:08;94856.59;;;9.53;100.00
3096;BME280;1558;42.700;23.360;2023-03-26T03:10:36;94828.66;;;9.34;100.00
3096;BME280;1558;42.700;23.360;2023-03-26T03:13:05;94860.88;;;9.54;100.00
3096;BME280;1558;42.700;23.360;2023-03-26T03:15:34;94868.25;;;9.45;100.00
3096;BME280;1558;42.700;23.360;2023-03-26T03:18:02;94869.47;;;9.36;100.00
3096;BME280;1558;42.700;23.360;2023-03-26T03:20:31;94875.50;;;9.33;100.00
3096;BME280;1558;42.700;23.360;2023-03-26T03:23:01;94632.91;;;7.81;100.00
3096;BME280;1558;42.700;23.360;2023-03-26T03:25:28;94865.84;;;9.20;100.00
3096;BME280;1558;42.700;23.360;2023-03-26T03:27:58;94872.78;;;9.21;100.00
3096;BME280;1558;42.700;23.360;2023-03-26T03:30:26;94880.28;;;9.15;100.00
3096;BME280;1558;42.700;23.360;2023-03-26T03:32:55;94865.34;;;9.06;100.00
3096;BME280;1558;42.700;23.360;2023-03-26T03:35:29;94882.88;;;9.12;100.00
3096;BME280;1558;42.700;23.360;2023-03-26T03:37:57;94883.75;;;9.16;100.00
3096;BME280;1558;42.700;23.360;2023-03-26T03:40:44;94809.22;;;8.71;100.00
3096;BME280;1558;42.700;23.360;2023-03-26T03:43:14;94870.22;;;9.12;100.00
3096;BME280;1558;42.700;23.360;2023-03-26T03:45:44;94864.69;;;9.09;100.00
3096;BME280;1558;42.700;23.360;2023-03-26T03:48:14;94873.22;;;9.11;100.00
3096;BME280;1558;42.700;23.360;2023-03-26T03:50:45;94885.66;;;9.15;100.00
3096;BME280;1558;42.700;23.360;2023-03-26T03:53:13;94877.03;;;9.10;100.00
3096;BME280;1558;42.700;23.360;2023-03-26T03:55:43;94885.66;;;9.15;100.00
3096;BME280;1558;42.700;23.360;2023-03-26T03:58:20;94869.03;;;9.01;100.00
3096;BME280;1558;42.700;23.360;2023-03-26T04:01:04;94831.56;;;8.84;100.00
3096;BME280;1558;42.700;23.360;2023-03-26T04:03:38;94758.38;;;8.34;100.00
3096;BME280;1558;42.700;23.360;2023-03-26T04:06:07;94886.22;;;9.09;100.00
3096;BME280;1558;42.700;23.360;2023-03-26T04:08:38;94887.00;;;9.09;100.00
3096;BME280;1558;42.700;23.360;2023-03-26T04:11:14;94895.41;;;9.08;100.00
3096;BME280;1558;42.700;23.360;2023-03-26T04:13:47;94900.44;;;9.09;100.00
3096;BME280;1558;42.700;23.360;2023-03-26T04:16:15;94906.19;;;9.08;100.00
3096;BME280;1558;42.700;23.360;2023-03-26T04:18:45;94912.31;;;9.08;100.00
3096;BME280;1558;42.700;23.360;2023-03-26T04:21:13;94928.25;;;9.13;100.00
3096;BME280;1558;42.700;23.360;2023-03-26T04:23:41;94937.56;;;9.16;100.00
3096;BME280;1558;42.700;23.360;2023-03-26T04:26:13;94946.88;;;9.18;100.00
3096;BME280;1558;42.700;23.360;2023-03-26T04:28:46;94956.84;;;9.18;100.00
3096;BME280;1558;42.700;23.360;2023-03-26T04:31:24;94911.25;;;8.89;100.00
3096;BME280;1558;42.700;23.360;2023-03-26T04:34:05;94972.50;;;9.24;100.00
3096;BME280;1558;42.700;23.360;2023-03-26T04:36:33;94969.47;;;9.26;100.00
3096;BME280;1558;42.700;23.360;2023-03-26T04:39:02;94970.44;;;9.21;100.00
3096;BME280;1558;42.700;23.360;2023-03-26T04:41:31;94982.47;;;9.24;100.00
3096;BME280;1558;42.700;23.360;2023-03-26T04:43:59;94953.72;;;9.16;100.00
3096;BME280;1558;42.700;23.360;2023-03-26T04:46:27;94981.56;;;9.32;100.00
3096;BME280;1558;42.700;23.360;2023-03-26T04:49:00;94953.31;;;9.26;100.00
3096;BME280;1558;42.700;23.360;2023-03-26T04:51:33;94979.41;;;9.46;100.00
3096;BME280;1558;42.700;23.360;2023-03-26T04:54:09;94981.63;;;9.44;100.00
3096;BME280;1558;42.700;23.360;2023-03-26T04:56:41;94990.50;;;9.44;100.00
3096;BME280;1558;42.700;23.360;2023-03-26T04:59:13;94986.94;;;9.52;100.00
3096;BME280;1558;42.700;23.360;2023-03-26T05:01:44;94984.16;;;9.61;100.00
3096;BME280;1558;42.700;23.360;2023-03-26T05:04:30;94987.78;;;9.77;100.00
3096;BME280;1558;42.700;23.360;2023-03-26T05:07:01;94830.84;;;8.75;100.00
3096;BME280;1558;42.700;23.360;2023-03-26T05:09:29;94983.22;;;10.02;100.00
3096;BME280;1558;42.700;23.360;2023-03-26T05:11:58;94986.06;;;10.66;100.00
3096;BME280;1558;42.700;23.360;2023-03-26T05:14:29;94982.88;;;11.55;100.00
3096;BME280;1558;42.700;23.360;2023-03-26T05:16:56;94986.09;;;11.45;97.43
3096;BME280;1558;42.700;23.360;2023-03-26T05:19:25;94995.22;;;11.69;93.83
3096;BME280;1558;42.700;23.360;2023-03-26T05:21:57;94984.88;;;11.58;93.58
3096;BME280;1558;42.700;23.360;2023-03-26T05:24:26;94988.03;;;11.33;93.30
3096;BME280;1558;42.700;23.360;2023-03-26T05:26:54;94996.47;;;11.59;92.28
3096;BME280;1558;42.700;23.360;2023-03-26T05:29:25;94986.16;;;11.21;92.52
3096;BME280;1558;42.700;23.360;2023-03-26T05:31:53;94995.25;;;10.77;94.26
3096;BME280;1558;42.700;23.360;2023-03-26T05:34:21;94989.56;;;10.30;97.89
3096;BME280;1558;42.700;23.360;2023-03-26T05:36:51;94982.44;;;10.01;100.00
3096;BME280;1558;42.700;23.360;2023-03-26T05:39:21;94985.44;;;9.88;100.00
3096;BME280;1558;42.700;23.360;2023-03-26T05:41:52;94995.84;;;9.77;100.00
3096;BME280;1558;42.700;23.360;2023-03-26T05:44:20;94989.91;;;9.72;100.00
3096;BME280;1558;42.700;23.360;2023-03-26T05:46:48;94985.94;;;9.57;100.00
3096;BME280;1558;42.700;23.360;2023-03-26T05:49:15;95000.75;;;9.63;100.00
3096;BME280;1558;42.700;23.360;2023-03-26T05:51:44;95003.91;;;9.65;100.00
3096;BME280;1558;42.700;23.360;2023-03-26T05:54:11;95016.06;;;9.71;100.00
3096;BME280;1558;42.700;23.360;2023-03-26T05:56:41;95011.47;;;9.72;100.00
3096;BME280;1558;42.700;23.360;2023-03-26T05:59:09;95010.13;;;9.78;100.00
3096;BME280;1558;42.700;23.360;2023-03-26T06:01:37;95002.72;;;9.87;100.00
3096;BME280;1558;42.700;23.360;2023-03-26T06:04:05;94995.06;;;10.22;100.00
3096;BME280;1558;42.700;23.360;2023-03-26T06:06:33;95001.78;;;10.76;100.00
3096;BME280;1558;42.700;23.360;2023-03-26T06:09:01;94991.94;;;11.47;97.05
3096;BME280;1558;42.700;23.360;2023-03-26T06:11:30;94953.28;;;11.31;92.42
3096;BME280;1558;42.700;23.360;2023-03-26T06:14:00;95004.72;;;12.37;88.37
3096;BME280;1558;42.700;23.360;2023-03-26T06:16:28;95003.47;;;13.01;85.94
3096;BME280;1558;42.700;23.360;2023-03-26T06:18:56;94998.34;;;13.69;82.22
3096;BME280;1558;42.700;23.360;2023-03-26T06:21:24;94994.38;;;14.04;78.33
3096;BME280;1558;42.700;23.360;2023-03-26T06:23:53;95003.09;;;14.17;75.68
3096;BME280;1558;42.700;23.360;2023-03-26T06:26:21;95006.31;;;14.22;73.99
3096;BME280;1558;42.700;23.360;2023-03-26T06:28:49;94993.63;;;14.49;72.70
3096;BME280;1558;42.700;23.360;2023-03-26T06:31:18;95006.44;;;14.30;71.53
3096;BME280;1558;42.700;23.360;2023-03-26T06:33:46;94998.81;;;13.93;73.47
3096;BME280;1558;42.700;23.360;2023-03-26T06:36:15;95005.47;;;14.18;73.27
3096;BME280;1558;42.700;23.360;2023-03-26T06:38:44;95007.56;;;14.74;71.78
3096;BME280;1558;42.700;23.360;2023-03-26T06:41:12;95000.31;;;15.08;70.10
3096;BME280;1558;42.700;23.360;2023-03-26T06:43:40;95002.16;;;15.00;69.49
3096;BME280;1558;42.700;23.360;2023-03-26T06:46:09;95002.69;;;14.83;69.49
3096;BME280;1558;42.700;23.360;2023-03-26T06:48:39;95005.41;;;15.09;68.54
3096;BME280;1558;42.700;23.360;2023-03-26T06:51:08;95013.53;;;15.35;67.52
3096;BME280;1558;42.700;23.360;2023-03-26T06:53:37;95016.66;;;15.37;65.42
3096;BME280;1558;42.700;23.360;2023-03-26T06:56:06;95027.59;;;14.88;66.43
3096;BME280;1558;42.700;23.360;2023-03-26T06:58:34;95019.06;;;15.42;65.20
3096;BME280;1558;42.700;23.360;2023-03-26T07:01:03;95030.81;;;14.98;65.43
3096;BME280;1558;42.700;23.360;2023-03-26T07:03:31;95022.81;;;15.05;65.70
3096;BME280;1558;42.700;23.360;2023-03-26T07:06:00;95026.69;;;15.33;64.77
3096;BME280;1558;42.700;23.360;2023-03-26T07:08:28;95018.50;;;15.04;64.51
3096;BME280;1558;42.700;23.360;2023-03-26T07:10:57;95020.22;;;14.89;65.40
3096;BME280;1558;42.700;23.360;2023-03-26T07:13:25;94999.13;;;14.79;65.85
3096;BME280;1558;42.700;23.360;2023-03-26T07:15:53;95001.13;;;15.68;63.98
3096;BME280;1558;42.700;23.360;2023-03-26T07:18:21;95023.13;;;15.55;63.16
3096;BME280;1558;42.700;23.360;2023-03-26T07:20:49;95019.84;;;15.73;61.86
3096;BME280;1558;42.700;23.360;2023-03-26T07:23:19;95016.72;;;15.71;62.42
3096;BME280;1558;42.700;23.360;2023-03-26T07:25:48;95012.75;;;15.98;61.39
3096;BME280;1558;42.700;23.360;2023-03-26T07:28:22;95000.72;;;15.66;60.44
3096;BME280;1558;42.700;23.360;2023-03-26T07:31:11;95005.66;;;15.90;61.49
3096;BME280;1558;42.700;23.360;2023-03-26T07:33:45;95007.47;;;16.52;58.83
3096;BME280;1558;42.700;23.360;2023-03-26T07:36:22;94957.16;;;16.39;57.96
3096;BME280;1558;42.700;23.360;2023-03-26T07:39:08;94995.34;;;16.46;56.83
3096;BME280;1558;42.700;23.360;2023-03-26T07:41:42;94991.81;;;16.02;56.73
3096;BME280;1558;42.700;23.360;2023-03-26T07:44:43;94994.53;;;16.02;57.36
3096;BME280;1558;42.700;23.360;2023-03-26T07:47:22;94992.84;;;16.27;56.82
3096;BME280;1558;42.700;23.360;2023-03-26T07:49:53;95007.03;;;16.47;55.64
3096;BME280;1558;42.700;23.360;2023-03-26T07:52:24;95019.31;;;16.30;56.55
3096;BME280;1558;42.700;23.360;2023-03-26T07:54:54;94862.50;;;15.71;55.93
3096;BME280;1558;42.700;23.360;2023-03-26T07:57:32;95008.06;;;17.33;54.26
3096;BME280;1558;42.700;23.360;2023-03-26T08:00:06;95005.16;;;17.05;53.84
3096;BME280;1558;42.700;23.360;2023-03-26T08:02:51;95003.97;;;17.03;54.60
3096;BME280;1558;42.700;23.360;2023-03-26T08:05:25;94986.81;;;16.99;54.41
3096;BME280;1558;42.700;23.360;2023-03-26T08:08:05;94978.88;;;17.37;54.31
3096;BME280;1558;42.700;23.360;2023-03-26T08:10:42;95004.25;;;17.48;52.91
3096;BME280;1558;42.700;23.360;2023-03-26T08:13:21;94964.81;;;17.32;52.85
3096;BME280;1558;42.700;23.360;2023-03-26T08:15:57;94976.47;;;17.29;54.14
3096;BME280;1558;42.700;23.360;2023-03-26T08:18:40;94844.44;;;16.47;54.23
3096;BME280;1558;42.700;23.360;2023-03-26T08:21:12;94987.72;;;18.10;51.91
3096;BME280;1558;42.700;23.360;2023-03-26T08:23:50;94990.47;;;17.99;51.53
3096;BME280;1558;42.700;23.360;2023-03-26T08:26:32;94995.03;;;17.71;50.36
3096;BME280;1558;42.700;23.360;2023-03-26T08:29:09;94998.50;;;17.61;50.93
3096;BME280;1558;42.700;23.360;2023-03-26T08:31:42;94996.56;;;17.61;49.79
3096;BME280;1558;42.700;23.360;2023-03-26T08:34:12;95003.25;;;17.81;49.55
3096;BME280;1558;42.700;23.360;2023-03-26T08:36:40;95002.91;;;18.00;50.16
3096;BME280;1558;42.700;23.360;2023-03-26T08:39:08;95000.25;;;18.25;48.93
3096;BME280;1558;42.700;23.360;2023-03-26T08:47:59;95005.69;;;18.21;46.32
3096;BME280;1558;42.700;23.360;2023-03-26T08:51:10;94995.09;;;17.92;45.64
3096;BME280;1558;42.700;23.360;2023-03-26T08:56:48;94995.63;;;18.64;45.19
3096;BME280;1558;42.700;23.360;2023-03-26T08:59:43;94997.53;;;18.43;44.97
3096;BME280;1558;42.700;23.360;2023-03-26T09:02:47;94995.19;;;18.20;45.92
3096;BME280;1558;42.700;23.360;2023-03-26T09:08:52;94995.25;;;18.87;43.79
3096;BME280;1558;42.700;23.360;2023-03-26T09:15:06;95001.13;;;18.75;42.58
3096;BME280;1558;42.700;23.360;2023-03-26T09:24:19;94983.53;;;18.55;41.06
3096;BME280;1558;42.700;23.360;2023-03-26T09:26:59;94978.06;;;18.55;40.24
3096;BME280;1558;42.700;23.360;2023-03-26T09:30:03;94962.88;;;18.61;40.27
3096;BME280;1558;42.700;23.360;2023-03-26T09:35:51;94968.25;;;19.17;38.79
3096;BME280;1558;42.700;23.360;2023-03-26T09:38:41;94919.50;;;18.20;40.95
3096;BME280;1558;42.700;23.360;2023-03-26T09:41:15;94948.41;;;18.81;40.99
3096;BME280;1558;42.700;23.360;2023-03-26T09:47:29;94947.59;;;18.95;41.58
3096;BME280;1558;42.700;23.360;2023-03-26T09:50:28;94963.22;;;19.09;40.83
3096;BME280;1558;42.700;23.360;2023-03-26T09:53:12;94934.75;;;18.85;40.47
3096;BME280;1558;42.700;23.360;2023-03-26T09:55:49;94933.06;;;19.26;40.27
3096;BME280;1558;42.700;23.360;2023-03-26T09:58:37;94939.31;;;19.41;38.76
3096;BME280;1558;42.700;23.360;2023-03-26T10:01:11;94935.06;;;19.15;39.33
3096;BME280;1558;42.700;23.360;2023-03-26T10:03:53;94894.84;;;19.16;38.70
3096;BME280;1558;42.700;23.360;2023-03-26T10:06:42;94936.63;;;19.13;37.65
3096;BME280;1558;42.700;23.360;2023-03-26T10:09:24;94880.75;;;19.17;37.86
3096;BME280;1558;42.700;23.360;2023-03-26T10:12:20;94927.56;;;20.20;38.41
3096;BME280;1558;42.700;23.360;2023-03-26T10:15:00;94918.50;;;20.81;37.98
3096;BME280;1558;42.700;23.360;2023-03-26T10:17:39;94907.16;;;21.20;36.99
3096;BME280;1558;42.700;23.360;2023-03-26T10:20:39;94892.09;;;20.94;36.63
3096;BME280;1558;42.700;23.360;2023-03-26T10:23:21;94906.09;;;21.11;36.13
3096;BME280;1558;42.700;23.360;2023-03-26T10:26:02;94914.88;;;20.91;35.16
3096;BME280;1558;42.700;23.360;2023-03-26T10:28:52;94898.41;;;20.91;35.96
3096;BME280;1558;42.700;23.360;2023-03-26T10:31:35;94886.19;;;21.37;35.63
3096;BME280;1558;42.700;23.360;2023-03-26T10:34:13;94877.91;;;21.07;35.60
3096;BME280;1558;42.700;23.360;2023-03-26T10:37:05;94887.75;;;21.01;35.50
3096;BME280;1558;42.700;23.360;2023-03-26T10:39:59;94848.94;;;20.17;34.70
3096;BME280;1558;42.700;23.360;2023-03-26T10:42:42;94854.13;;;20.52;34.82
3096;BME280;1558;42.700;23.360;2023-03-26T10:45:25;94838.28;;;19.75;35.18
3096;BME280;1558;42.700;23.360;2023-03-26T10:48:15;94830.31;;;19.98;35.83
3096;BME280;1558;42.700;23.360;2023-03-26T10:50:53;94871.66;;;20.65;34.55
3096;BME280;1558;42.700;23.360;2023-03-26T10:53:31;94869.28;;;21.08;34.00
3096;BME280;1558;42.700;23.360;2023-03-26T10:56:06;94870.63;;;20.49;35.07
3096;BME280;1558;42.700;23.360;2023-03-26T10:58:39;94858.81;;;20.92;34.69
3096;BME280;1558;42.700;23.360;2023-03-26T11:01:24;94864.19;;;20.66;33.89
3096;BME280;1558;42.700;23.360;2023-03-26T11:04:05;94852.69;;;20.41;35.50
3096;BME280;1558;42.700;23.360;2023-03-26T11:06:44;94847.97;;;21.19;34.30
3096;BME280;1558;42.700;23.360;2023-03-26T11:09:25;94842.31;;;21.33;32.92
3096;BME280;1558;42.700;23.360;2023-03-26T11:12:00;94843.50;;;20.10;33.25
3096;BME280;1558;42.700;23.360;2023-03-26T11:14:58;94840.88;;;20.47;33.59
3096;BME280;1558;42.700;23.360;2023-03-26T11:17:38;94850.88;;;21.05;32.77
3096;BME280;1558;42.700;23.360;2023-03-26T11:20:15;94837.38;;;21.21;32.13
3096;BME280;1558;42.700;23.360;2023-03-26T11:22:55;94787.31;;;21.44;31.27
3096;BME280;1558;42.700;23.360;2023-03-26T11:25:36;94779.69;;;20.57;31.25
3096;BME280;1558;42.700;23.360;2023-03-26T11:28:22;94840.22;;;20.73;32.34
3096;BME280;1558;42.700;23.360;2023-03-26T11:30:56;94828.19;;;21.35;31.51
3096;BME280;1558;42.700;23.360;2023-03-26T11:33:28;94808.84;;;21.15;31.46
3096;BME280;1558;42.700;23.360;2023-03-26T11:36:01;94834.59;;;21.25;31.58
3096;BME280;1558;42.700;23.360;2023-03-26T11:38:37;94822.31;;;20.99;31.21
3096;BME280;1558;42.700;23.360;2023-03-26T11:41:14;94828.28;;;21.28;31.80
3096;BME280;1558;42.700;23.360;2023-03-26T11:43:51;94779.66;;;21.28;30.67
3096;BME280;1558;42.700;23.360;2023-03-26T11:46:22;94791.94;;;20.83;31.42
3096;BME280;1558;42.700;23.360;2023-03-26T11:48:56;94797.72;;;21.26;31.06
3096;BME280;1558;42.700;23.360;2023-03-26T11:51:29;94784.03;;;21.52;30.68
3096;BME280;1558;42.700;23.360;2023-03-26T11:54:01;94745.56;;;21.56;30.32
3096;BME280;1558;42.700;23.360;2023-03-26T11:56:33;94761.03;;;21.70;30.39
3096;BME280;1558;42.700;23.360;2023-03-26T11:59:29;94770.94;;;21.64;30.37
3096;BME280;1558;42.700;23.360;2023-03-26T12:02:24;94754.66;;;21.76;28.83
3096;BME280;1558;42.700;23.360;2023-03-26T12:05:10;94751.75;;;21.33;29.52
3096;BME280;1558;42.700;23.360;2023-03-26T12:07:51;94752.88;;;21.09;29.95
3096;BME280;1558;42.700;23.360;2023-03-26T12:10:25;94755.34;;;21.57;29.91
3096;BME280;1558;42.700;23.360;2023-03-26T12:13:00;94739.00;;;21.73;28.81
3096;BME280;1558;42.700;23.360;2023-03-26T12:15:30;94744.72;;;21.59;29.32
3096;BME280;1558;42.700;23.360;2023-03-26T12:18:18;94735.72;;;21.85;28.42
3096;BME280;1558;42.700;23.360;2023-03-26T12:21:02;94741.59;;;22.10;28.11
3096;BME280;1558;42.700;23.360;2023-03-26T12:23:42;94740.63;;;21.17;29.16
3096;BME280;1558;42.700;23.360;2023-03-26T12:26:17;94727.47;;;21.05;29.35
3096;BME280;1558;42.700;23.360;2023-03-26T12:28:49;94715.44;;;20.62;28.73
3096;BME280;1558;42.700;23.360;2023-03-26T12:31:23;94715.75;;;20.37;29.15
3096;BME280;1558;42.700;23.360;2023-03-26T12:34:06;94587.56;;;18.96;28.45
3096;BME280;1558;42.700;23.360;2023-03-26T12:36:48;94715.44;;;19.84;28.63
3096;BME280;1558;42.700;23.360;2023-03-26T12:39:36;94709.75;;;20.05;28.40
3096;BME280;1558;42.700;23.360;2023-03-26T12:42:29;94698.88;;;19.98;29.59
3096;BME280;1558;42.700;23.360;2023-03-26T12:45:30;94715.59;;;20.48;28.45
3096;BME280;1558;42.700;23.360;2023-03-26T12:48:00;94702.94;;;20.61;28.28
3096;BME280;1558;42.700;23.360;2023-03-26T12:50:43;94697.53;;;20.54;28.01
3096;BME280;1558;42.700;23.360;2023-03-26T12:56:19;94694.22;;;20.69;27.43
3096;BME280;1558;42.700;23.360;2023-03-26T12:59:18;94694.00;;;20.16;26.98
3096;BME280;1558;42.700;23.360;2023-03-26T13:02:02;94690.50;;;20.15;26.97
3096;BME280;1558;42.700;23.360;2023-03-26T13:04:59;94692.69;;;19.90;27.61
3096;BME280;1558;42.700;23.360;2023-03-26T13:07:58;94691.44;;;19.54;26.70
3096;BME280;1558;42.700;23.360;2023-03-26T13:10:43;94692.16;;;19.00;26.56
3096;BME280;1558;42.700;23.360;2023-03-26T13:13:33;94690.44;;;18.54;27.29
3096;BME280;1558;42.700;23.360;2023-03-26T13:16:08;94663.16;;;18.47;27.54
3096;BME280;1558;42.700;23.360;2023-03-26T13:18:46;94671.75;;;18.39;26.34
3096;BME280;1558;42.700;23.360;2023-03-26T13:21:26;94685.09;;;18.22;26.45
3096;BME280;1558;42.700;23.360;2023-03-26T13:24:05;94645.00;;;17.88;26.63
3096;BME280;1558;42.700;23.360;2023-03-26T13:26:47;94681.19;;;18.16;26.46
3096;BME280;1558;42.700;23.360;2023-03-26T13:29:22;94671.03;;;18.27;26.90
3096;BME280;1558;42.700;23.360;2023-03-26T13:31:59;94671.75;;;18.46;26.97
3096;BME280;1558;42.700;23.360;2023-03-26T13:34:38;94677.25;;;18.32;26.02
3096;BME280;1558;42.700;23.360;2023-03-26T13:37:13;94679.66;;;18.15;26.41
3096;BME280;1558;42.700;23.360;2023-03-26T13:39:56;94656.31;;;17.93;27.33
3096;BME280;1558;42.700;23.360;2023-03-26T13:42:43;94639.91;;;18.00;28.72
3096;BME280;1558;42.700;23.360;2023-03-26T13:45:26;94666.00;;;18.15;28.54
3096;BME280;1558;42.700;23.360;2023-03-26T13:48:01;94662.53;;;17.97;28.72
3096;BME280;1558;42.700;23.360;2023-03-26T13:50:36;94657.09;;;17.87;28.78
3096;BME280;1558;42.700;23.360;2023-03-26T13:53:10;94659.78;;;17.97;29.26
3096;BME280;1558;42.700;23.360;2023-03-26T13:55:49;94652.69;;;18.32;31.03
3096;BME280;1558;42.700;23.360;2023-03-26T13:58:23;94656.91;;;18.43;28.86
3096;BME280;1558;42.700;23.360;2023-03-26T14:01:04;94639.50;;;18.02;27.91
3096;BME280;1558;42.700;23.360;2023-03-26T14:03:42;94652.84;;;17.75;28.30
3096;BME280;1558;42.700;23.360;2023-03-26T14:06:26;94653.22;;;17.77;28.98
3096;BME280;1558;42.700;23.360;2023-03-26T14:08:59;94613.09;;;17.74;28.66
3096;BME280;1558;42.700;23.360;2023-03-26T14:11:38;94636.81;;;17.91;27.37
3096;BME280;1558;42.700;23.360;2023-03-26T14:14:13;94639.94;;;17.97;27.17
3096;BME280;1558;42.700;23.360;2023-03-26T14:16:47;94631.44;;;17.63;26.71
3096;BME280;1558;42.700;23.360;2023-03-26T14:19:40;94625.59;;;17.47;26.67
3096;BME280;1558;42.700;23.360;2023-03-26T14:22:24;94619.38;;;17.53;25.82
3096;BME280;1558;42.700;23.360;2023-03-26T14:25:12;94622.88;;;17.40;26.03
3096;BME280;1558;42.700;23.360;2023-03-26T14:27:47;94629.88;;;17.34;26.23